sensor_id;sensor_type;location;lat;lon;timestamp;pressure;altitude;pressure_sealevel;temperature
70533;BMP180;58088;51.186;17.130;2023-11-21T00:02:08;99423.20;;;11.70
70533;BMP180;58088;51.186;17.130;2023-11-21T00:04:34;99419.20;;;11.70
70533;BMP180;58088;51.186;17.130;2023-11-21T00:07:00;99430.00;;;11.72
70533;BMP180;58088;51.186;17.130;2023-11-21T00:09:26;99427.40;;;11.74
70533;BMP180;58088;51.186;17.130;2023-11-21T00:11:53;99433.80;;;11.70
70533;BMP180;58088;51.186;17.130;2023-11-21T00:14:19;99433.60;;;11.70
70533;BMP180;58088;51.186;17.130;2023-11-21T00:16:45;99430.80;;;11.70
70533;BMP180;58088;51.186;17.130;2023-11-21T00:19:12;99429.60;;;11.70
70533;BMP180;58088;51.186;17.130;2023-11-21T00:21:38;99433.80;;;11.70
70533;BMP180;58088;51.186;17.130;2023-11-21T00:24:04;99434.60;;;11.70
70533;BMP180;58088;51.186;17.130;2023-11-21T00:26:30;99433.20;;;11.70
70533;BMP180;58088;51.186;17.130;2023-11-21T00:29:03;99437.40;;;11.70
70533;BMP180;58088;51.186;17.130;2023-11-21T00:31:29;99443.20;;;11.62
70533;BMP180;58088;51.186;17.130;2023-11-21T00:33:56;99444.00;;;11.60
70533;BMP180;58088;51.186;17.130;2023-11-21T00:36:23;99444.40;;;11.60
70533;BMP180;58088;51.186;17.130;2023-11-21T00:38:49;99436.00;;;11.60
70533;BMP180;58088;51.186;17.130;2023-11-21T00:41:15;99441.00;;;11.60
70533;BMP180;58088;51.186;17.130;2023-11-21T00:43:41;99443.40;;;11.60
70533;BMP180;58088;51.186;17.130;2023-11-21T00:46:07;99445.00;;;11.60
70533;BMP180;58088;51.186;17.130;2023-11-21T00:48:33;99443.20;;;11.60
70533;BMP180;58088;51.186;17.130;2023-11-21T00:51:00;99444.00;;;11.60
70533;BMP180;58088;51.186;17.130;2023-11-21T00:53:26;99447.80;;;11.60
70533;BMP180;58088;51.186;17.130;2023-11-21T00:55:52;99446.40;;;11.60
70533;BMP180;58088;51.186;17.130;2023-11-21T00:58:26;99449.40;;;11.60
70533;BMP180;58088;51.186;17.130;2023-11-21T01:00:52;99440.80;;;11.58
70533;BMP180;58088;51.186;17.130;2023-11-21T01:03:19;99439.40;;;11.50
70533;BMP180;58088;51.186;17.130;2023-11-21T01:05:45;99445.40;;;11.50
70533;BMP180;58088;51.186;17.130;2023-11-21T01:08:12;99449.60;;;11.50
70533;BMP180;58088;51.186;17.130;2023-11-21T01:10:38;99451.40;;;11.50
70533;BMP180;58088;51.186;17.130;2023-11-21T01:13:04;99446.40;;;11.50
70533;BMP180;58088;51.186;17.130;2023-11-21T01:15:31;99447.20;;;11.50
70533;BMP180;58088;51.186;17.130;2023-11-21T01:17:58;99444.40;;;11.50
70533;BMP180;58088;51.186;17.130;2023-11-21T01:20:25;99443.20;;;11.50
70533;BMP180;58088;51.186;17.130;2023-11-21T01:22:52;99449.00;;;11.50
70533;BMP180;58088;51.186;17.130;2023-11-21T01:25:20;99450.80;;;11.50
70533;BMP180;58088;51.186;17.130;2023-11-21T01:27:49;99451.20;;;11.50
70533;BMP180;58088;51.186;17.130;2023-11-21T01:30:15;99453.20;;;11.50
70533;BMP180;58088;51.186;17.130;2023-11-21T01:32:42;99454.60;;;11.50
70533;BMP180;58088;51.186;17.130;2023-11-21T01:35:10;99456.20;;;11.50
70533;BMP180;58088;51.186;17.130;2023-11-21T01:37:38;99455.00;;;11.48
70533;BMP180;58088;51.186;17.130;2023-11-21T01:40:05;99455.20;;;11.50
70533;BMP180;58088;51.186;17.130;2023-11-21T01:42:35;99457.40;;;11.50
70533;BMP180;58088;51.186;17.130;2023-11-21T01:45:03;99457.20;;;11.50
70533;BMP180;58088;51.186;17.130;2023-11-21T01:47:33;99458.00;;;11.50
70533;BMP180;58088;51.186;17.130;2023-11-21T01:50:00;99460.60;;;11.50
70533;BMP180;58088;51.186;17.130;2023-11-21T01:52:28;99459.20;;;11.50
70533;BMP180;58088;51.186;17.130;2023-11-21T01:54:58;99461.00;;;11.50
70533;BMP180;58088;51.186;17.130;2023-11-21T01:57:27;99461.00;;;11.50
70533;BMP180;58088;51.186;17.130;2023-11-21T01:59:54;99463.00;;;11.42
70533;BMP180;58088;51.186;17.130;2023-11-21T02:02:22;99456.60;;;11.40
70533;BMP180;58088;51.186;17.130;2023-11-21T02:04:49;99457.00;;;11.40
70533;BMP180;58088;51.186;17.130;2023-11-21T02:07:15;99459.80;;;11.40
70533;BMP180;58088;51.186;17.130;2023-11-21T02:09:42;99464.60;;;11.40
70533;BMP180;58088;51.186;17.130;2023-11-21T02:12:09;99462.40;;;11.40
70533;BMP180;58088;51.186;17.130;2023-11-21T02:14:36;99460.00;;;11.40
70533;BMP180;58088;51.186;17.130;2023-11-21T02:17:03;99462.40;;;11.40
70533;BMP180;58088;51.186;17.130;2023-11-21T02:19:31;99468.40;;;11.40
70533;BMP180;58088;51.186;17.130;2023-11-21T02:21:59;99465.60;;;11.40
70533;BMP180;58088;51.186;17.130;2023-11-21T02:24:32;99467.80;;;11.32
70533;BMP180;58088;51.186;17.130;2023-11-21T02:26:58;99464.20;;;11.30
70533;BMP180;58088;51.186;17.130;2023-11-21T02:29:25;99465.60;;;11.30
70533;BMP180;58088;51.186;17.130;2023-11-21T02:31:55;99463.20;;;11.30
70533;BMP180;58088;51.186;17.130;2023-11-21T02:34:22;99460.40;;;11.30
70533;BMP180;58088;51.186;17.130;2023-11-21T02:36:51;99464.60;;;11.30
70533;BMP180;58088;51.186;17.130;2023-11-21T02:39:17;99466.40;;;11.30
70533;BMP180;58088;51.186;17.130;2023-11-21T02:41:44;99468.00;;;11.28
70533;BMP180;58088;51.186;17.130;2023-11-21T02:44:10;99468.80;;;11.22
70533;BMP180;58088;51.186;17.130;2023-11-21T02:46:37;99466.60;;;11.26
70533;BMP180;58088;51.186;17.130;2023-11-21T02:49:04;99466.00;;;11.20
70533;BMP180;58088;51.186;17.130;2023-11-21T02:51:33;99468.80;;;11.20
70533;BMP180;58088;51.186;17.130;2023-11-21T02:53:59;99470.20;;;11.20
70533;BMP180;58088;51.186;17.130;2023-11-21T02:56:28;99473.00;;;11.20
70533;BMP180;58088;51.186;17.130;2023-11-21T02:59:00;99474.80;;;11.20
70533;BMP180;58088;51.186;17.130;2023-11-21T03:02:05;99468.00;;;11.20
70533;BMP180;58088;51.186;17.130;2023-11-21T03:04:52;99472.20;;;11.20
70533;BMP180;58088;51.186;17.130;2023-11-21T03:07:20;99471.80;;;11.20
70533;BMP180;58088;51.186;17.130;2023-11-21T03:09:47;99473.00;;;11.20
70533;BMP180;58088;51.186;17.130;2023-11-21T03:12:13;99474.60;;;11.20
70533;BMP180;58088;51.186;17.130;2023-11-21T03:14:40;99472.40;;;11.20
70533;BMP180;58088;51.186;17.130;2023-11-21T03:17:06;99473.20;;;11.22
70533;BMP180;58088;51.186;17.130;2023-11-21T03:19:32;99472.60;;;11.20
70533;BMP180;58088;51.186;17.130;2023-11-21T03:21:59;99472.00;;;11.20
70533;BMP180;58088;51.186;17.130;2023-11-21T03:24:25;99474.00;;;11.20
70533;BMP180;58088;51.186;17.130;2023-11-21T03:26:52;99475.00;;;11.20
70533;BMP180;58088;51.186;17.130;2023-11-21T03:29:18;99477.00;;;11.20
70533;BMP180;58088;51.186;17.130;2023-11-21T03:31:44;99479.20;;;11.20
70533;BMP180;58088;51.186;17.130;2023-11-21T03:34:19;99477.80;;;11.20
70533;BMP180;58088;51.186;17.130;2023-11-21T03:36:46;99481.00;;;11.20
70533;BMP180;58088;51.186;17.130;2023-11-21T03:39:12;99479.20;;;11.20
70533;BMP180;58088;51.186;17.130;2023-11-21T03:41:38;99484.40;;;11.20
70533;BMP180;58088;51.186;17.130;2023-11-21T03:44:05;99488.60;;;11.20
70533;BMP180;58088;51.186;17.130;2023-11-21T03:46:31;99485.20;;;11.20
70533;BMP180;58088;51.186;17.130;2023-11-21T03:48:57;99487.20;;;11.20
70533;BMP180;58088;51.186;17.130;2023-11-21T03:51:23;99484.40;;;11.20
70533;BMP180;58088;51.186;17.130;2023-11-21T03:53:49;99487.20;;;11.20
70533;BMP180;58088;51.186;17.130;2023-11-21T03:56:15;99491.20;;;11.20
70533;BMP180;58088;51.186;17.130;2023-11-21T03:58:42;99489.60;;;11.20
70533;BMP180;58088;51.186;17.130;2023-11-21T04:01:08;99485.20;;;11.20
70533;BMP180;58088;51.186;17.130;2023-11-21T04:03:35;99494.60;;;11.20
70533;BMP180;58088;51.186;17.130;2023-11-21T04:06:01;99499.80;;;11.20
70533;BMP180;58088;51.186;17.130;2023-11-21T04:08:27;99502.80;;;11.20
70533;BMP180;58088;51.186;17.130;2023-11-21T04:10:54;99498.80;;;11.20
70533;BMP180;58088;51.186;17.130;2023-11-21T04:13:20;99499.20;;;11.20
70533;BMP180;58088;51.186;17.130;2023-11-21T04:15:47;99495.00;;;11.26
70533;BMP180;58088;51.186;17.130;2023-11-21T04:18:13;99490.00;;;11.30
70533;BMP180;58088;51.186;17.130;2023-11-21T04:20:39;99496.00;;;11.30
70533;BMP180;58088;51.186;17.130;2023-11-21T04:23:06;99500.40;;;11.30
70533;BMP180;58088;51.186;17.130;2023-11-21T04:25:32;99497.20;;;11.30
70533;BMP180;58088;51.186;17.130;2023-11-21T04:27:58;99505.40;;;11.30
70533;BMP180;58088;51.186;17.130;2023-11-21T04:30:25;99500.00;;;11.24
70533;BMP180;58088;51.186;17.130;2023-11-21T04:32:51;99509.20;;;11.26
70533;BMP180;58088;51.186;17.130;2023-11-21T04:35:17;99510.60;;;11.30
70533;BMP180;58088;51.186;17.130;2023-11-21T04:37:44;99512.20;;;11.30
70533;BMP180;58088;51.186;17.130;2023-11-21T04:40:11;99516.40;;;11.28
70533;BMP180;58088;51.186;17.130;2023-11-21T04:42:37;99513.00;;;11.24
70533;BMP180;58088;51.186;17.130;2023-11-21T04:45:05;99518.20;;;11.22
70533;BMP180;58088;51.186;17.130;2023-11-21T04:47:36;99519.80;;;11.20
70533;BMP180;58088;51.186;17.130;2023-11-21T04:50:03;99519.40;;;11.20
70533;BMP180;58088;51.186;17.130;2023-11-21T04:52:30;99520.60;;;11.24
70533;BMP180;58088;51.186;17.130;2023-11-21T04:54:56;99523.60;;;11.24
70533;BMP180;58088;51.186;17.130;2023-11-21T04:57:24;99524.00;;;11.24
70533;BMP180;58088;51.186;17.130;2023-11-21T04:59:50;99534.40;;;11.26
70533;BMP180;58088;51.186;17.130;2023-11-21T05:02:16;99534.60;;;11.26
70533;BMP180;58088;51.186;17.130;2023-11-21T05:04:45;99534.80;;;11.20
70533;BMP180;58088;51.186;17.130;2023-11-21T05:07:12;99540.40;;;11.20
70533;BMP180;58088;51.186;17.130;2023-11-21T05:09:44;99536.20;;;11.20
70533;BMP180;58088;51.186;17.130;2023-11-21T05:12:12;99536.60;;;11.20
70533;BMP180;58088;51.186;17.130;2023-11-21T05:14:40;99536.40;;;11.20
70533;BMP180;58088;51.186;17.130;2023-11-21T05:17:07;99538.40;;;11.20
70533;BMP180;58088;51.186;17.130;2023-11-21T05:19:34;99539.40;;;11.20
70533;BMP180;58088;51.186;17.130;2023-11-21T05:22:01;99539.80;;;11.30
70533;BMP180;58088;51.186;17.130;2023-11-21T05:24:28;99543.00;;;11.30
70533;BMP180;58088;51.186;17.130;2023-11-21T05:26:54;99539.60;;;11.30
70533;BMP180;58088;51.186;17.130;2023-11-21T05:29:22;99547.60;;;11.26
70533;BMP180;58088;51.186;17.130;2023-11-21T05:31:48;99543.00;;;11.20
70533;BMP180;58088;51.186;17.130;2023-11-21T05:34:14;99542.00;;;11.20
70533;BMP180;58088;51.186;17.130;2023-11-21T05:36:43;99541.60;;;11.20
70533;BMP180;58088;51.186;17.130;2023-11-21T05:39:12;99534.80;;;11.20
70533;BMP180;58088;51.186;17.130;2023-11-21T05:41:38;99546.80;;;11.20
70533;BMP180;58088;51.186;17.130;2023-11-21T05:44:04;99545.80;;;11.20
70533;BMP180;58088;51.186;17.130;2023-11-21T05:46:31;99551.60;;;11.20
70533;BMP180;58088;51.186;17.130;2023-11-21T05:48:57;99551.60;;;11.12
70533;BMP180;58088;51.186;17.130;2023-11-21T05:51:23;99551.00;;;11.10
70533;BMP180;58088;51.186;17.130;2023-11-21T05:53:50;99548.00;;;11.10
70533;BMP180;58088;51.186;17.130;2023-11-21T05:56:16;99549.60;;;11.10
70533;BMP180;58088;51.186;17.130;2023-11-21T05:58:44;99551.40;;;11.10
70533;BMP180;58088;51.186;17.130;2023-11-21T06:01:10;99555.80;;;11.10
70533;BMP180;58088;51.186;17.130;2023-11-21T06:03:39;99554.20;;;11.10
70533;BMP180;58088;51.186;17.130;2023-11-21T06:06:05;99560.60;;;11.10
70533;BMP180;58088;51.186;17.130;2023-11-21T06:08:32;99561.20;;;11.10
70533;BMP180;58088;51.186;17.130;2023-11-21T06:10:58;99566.80;;;11.10
70533;BMP180;58088;51.186;17.130;2023-11-21T06:13:24;99566.40;;;11.10
70533;BMP180;58088;51.186;17.130;2023-11-21T06:15:51;99567.00;;;11.10
70533;BMP180;58088;51.186;17.130;2023-11-21T06:18:17;99580.40;;;11.10
70533;BMP180;58088;51.186;17.130;2023-11-21T06:20:46;99577.60;;;11.10
70533;BMP180;58088;51.186;17.130;2023-11-21T06:23:12;99578.60;;;11.10
70533;BMP180;58088;51.186;17.130;2023-11-21T06:25:38;99580.80;;;11.14
70533;BMP180;58088;51.186;17.130;2023-11-21T06:28:05;99588.20;;;11.12
70533;BMP180;58088;51.186;17.130;2023-11-21T06:30:31;99595.40;;;11.10
70533;BMP180;58088;51.186;17.130;2023-11-21T06:32:57;99598.80;;;11.10
70533;BMP180;58088;51.186;17.130;2023-11-21T06:35:25;99602.40;;;11.10
70533;BMP180;58088;51.186;17.130;2023-11-21T06:37:53;99604.20;;;11.10
70533;BMP180;58088;51.186;17.130;2023-11-21T06:40:19;99605.00;;;11.10
70533;BMP180;58088;51.186;17.130;2023-11-21T06:42:45;99604.80;;;11.10
70533;BMP180;58088;51.186;17.130;2023-11-21T06:45:12;99609.00;;;11.20
70533;BMP180;58088;51.186;17.130;2023-11-21T06:47:39;99610.00;;;11.18
70533;BMP180;58088;51.186;17.130;2023-11-21T06:50:05;99614.40;;;11.10
70533;BMP180;58088;51.186;17.130;2023-11-21T06:52:33;99614.20;;;11.12
70533;BMP180;58088;51.186;17.130;2023-11-21T06:54:59;99615.40;;;11.12
70533;BMP180;58088;51.186;17.130;2023-11-21T06:57:25;99618.60;;;11.14
70533;BMP180;58088;51.186;17.130;2023-11-21T06:59:51;99621.40;;;11.10
70533;BMP180;58088;51.186;17.130;2023-11-21T07:02:18;99624.00;;;11.10
70533;BMP180;58088;51.186;17.130;2023-11-21T07:04:46;99616.40;;;11.10
70533;BMP180;58088;51.186;17.130;2023-11-21T07:07:13;99622.40;;;11.20
70533;BMP180;58088;51.186;17.130;2023-11-21T07:09:39;99624.40;;;11.20
70533;BMP180;58088;51.186;17.130;2023-11-21T07:12:06;99628.00;;;11.20
70533;BMP180;58088;51.186;17.130;2023-11-21T07:14:34;99623.20;;;11.20
70533;BMP180;58088;51.186;17.130;2023-11-21T07:17:01;99633.40;;;11.20
70533;BMP180;58088;51.186;17.130;2023-11-21T07:19:27;99639.60;;;11.20
70533;BMP180;58088;51.186;17.130;2023-11-21T07:21:53;99636.00;;;11.20
70533;BMP180;58088;51.186;17.130;2023-11-21T07:24:19;99640.60;;;11.20
70533;BMP180;58088;51.186;17.130;2023-11-21T07:26:45;99642.20;;;11.20
70533;BMP180;58088;51.186;17.130;2023-11-21T07:29:11;99641.20;;;11.20
70533;BMP180;58088;51.186;17.130;2023-11-21T07:31:39;99638.20;;;11.24
70533;BMP180;58088;51.186;17.130;2023-11-21T07:34:07;99639.20;;;11.24
70533;BMP180;58088;51.186;17.130;2023-11-21T07:36:34;99644.20;;;11.30
70533;BMP180;58088;51.186;17.130;2023-11-21T07:39:00;99640.00;;;11.30
70533;BMP180;58088;51.186;17.130;2023-11-21T07:41:28;99646.00;;;11.30
70533;BMP180;58088;51.186;17.130;2023-11-21T07:43:55;99646.60;;;11.40
70533;BMP180;58088;51.186;17.130;2023-11-21T07:46:21;99654.80;;;11.40
70533;BMP180;58088;51.186;17.130;2023-11-21T07:48:48;99653.20;;;11.30
70533;BMP180;58088;51.186;17.130;2023-11-21T07:51:14;99655.80;;;11.30
70533;BMP180;58088;51.186;17.130;2023-11-21T07:53:40;99650.00;;;11.32
70533;BMP180;58088;51.186;17.130;2023-11-21T07:56:08;99661.00;;;11.38
70533;BMP180;58088;51.186;17.130;2023-11-21T07:58:36;99653.00;;;11.40
70533;BMP180;58088;51.186;17.130;2023-11-21T08:01:03;99656.20;;;11.42
70533;BMP180;58088;51.186;17.130;2023-11-21T08:03:30;99660.20;;;11.50
70533;BMP180;58088;51.186;17.130;2023-11-21T08:05:58;99661.40;;;11.50
70533;BMP180;58088;51.186;17.130;2023-11-21T08:08:29;99661.80;;;11.50
70533;BMP180;58088;51.186;17.130;2023-11-21T08:10:55;99662.80;;;11.60
70533;BMP180;58088;51.186;17.130;2023-11-21T08:13:26;99664.60;;;11.50
70533;BMP180;58088;51.186;17.130;2023-11-21T08:15:56;99665.60;;;11.56
70533;BMP180;58088;51.186;17.130;2023-11-21T08:18:24;99668.00;;;11.60
70533;BMP180;58088;51.186;17.130;2023-11-21T08:20:50;99665.00;;;11.56
70533;BMP180;58088;51.186;17.130;2023-11-21T08:23:17;99666.40;;;11.60
70533;BMP180;58088;51.186;17.130;2023-11-21T08:25:44;99667.00;;;11.60
70533;BMP180;58088;51.186;17.130;2023-11-21T08:28:10;99669.20;;;11.60
70533;BMP180;58088;51.186;17.130;2023-11-21T08:30:37;99678.20;;;11.60
70533;BMP180;58088;51.186;17.130;2023-11-21T08:33:03;99684.20;;;11.68
70533;BMP180;58088;51.186;17.130;2023-11-21T08:35:30;99684.80;;;11.70
70533;BMP180;58088;51.186;17.130;2023-11-21T08:37:57;99681.20;;;11.70
70533;BMP180;58088;51.186;17.130;2023-11-21T08:40:23;99685.20;;;11.76
70533;BMP180;58088;51.186;17.130;2023-11-21T08:42:49;99683.80;;;11.80
70533;BMP180;58088;51.186;17.130;2023-11-21T08:45:19;99688.80;;;11.80
70533;BMP180;58088;51.186;17.130;2023-11-21T08:47:45;99683.60;;;11.80
70533;BMP180;58088;51.186;17.130;2023-11-21T08:50:12;99689.40;;;11.90
70533;BMP180;58088;51.186;17.130;2023-11-21T08:52:39;99688.20;;;11.90
70533;BMP180;58088;51.186;17.130;2023-11-21T08:55:08;99689.00;;;11.92
70533;BMP180;58088;51.186;17.130;2023-11-21T08:57:38;99689.40;;;12.00
70533;BMP180;58088;51.186;17.130;2023-11-21T09:00:07;99685.60;;;12.02
70533;BMP180;58088;51.186;17.130;2023-11-21T09:02:42;99689.60;;;12.10
70533;BMP180;58088;51.186;17.130;2023-11-21T09:05:10;99682.00;;;12.10
70533;BMP180;58088;51.186;17.130;2023-11-21T09:07:39;99683.00;;;12.10
70533;BMP180;58088;51.186;17.130;2023-11-21T09:10:07;99690.00;;;12.10
70533;BMP180;58088;51.186;17.130;2023-11-21T09:12:36;99692.20;;;12.10
70533;BMP180;58088;51.186;17.130;2023-11-21T09:15:07;99693.20;;;12.10
70533;BMP180;58088;51.186;17.130;2023-11-21T09:17:35;99688.60;;;12.10
70533;BMP180;58088;51.186;17.130;2023-11-21T09:20:03;99692.40;;;12.10
70533;BMP180;58088;51.186;17.130;2023-11-21T09:22:32;99691.20;;;12.10
70533;BMP180;58088;51.186;17.130;2023-11-21T09:24:59;99694.00;;;12.20
70533;BMP180;58088;51.186;17.130;2023-11-21T09:27:25;99701.00;;;12.20
70533;BMP180;58088;51.186;17.130;2023-11-21T09:29:52;99705.80;;;12.20
70533;BMP180;58088;51.186;17.130;2023-11-21T09:32:19;99703.80;;;12.20
70533;BMP180;58088;51.186;17.130;2023-11-21T09:34:50;99698.00;;;12.20
70533;BMP180;58088;51.186;17.130;2023-11-21T09:37:17;99711.20;;;12.20
70533;BMP180;58088;51.186;17.130;2023-11-21T09:39:43;99709.60;;;12.20
70533;BMP180;58088;51.186;17.130;2023-11-21T09:42:19;99712.60;;;12.20
70533;BMP180;58088;51.186;17.130;2023-11-21T09:44:58;99716.40;;;12.20
70533;BMP180;58088;51.186;17.130;2023-11-21T09:47:27;99711.40;;;12.10
70533;BMP180;58088;51.186;17.130;2023-11-21T09:49:56;99717.60;;;12.10
70533;BMP180;58088;51.186;17.130;2023-11-21T09:52:26;99712.60;;;12.10
70533;BMP180;58088;51.186;17.130;2023-11-21T09:54:54;99715.40;;;12.00
70533;BMP180;58088;51.186;17.130;2023-11-21T09:57:23;99713.40;;;12.00
70533;BMP180;58088;51.186;17.130;2023-11-21T09:59:54;99713.20;;;12.00
70533;BMP180;58088;51.186;17.130;2023-11-21T10:02:27;99714.00;;;11.92
70533;BMP180;58088;51.186;17.130;2023-11-21T10:04:56;99709.20;;;11.90
70533;BMP180;58088;51.186;17.130;2023-11-21T10:07:23;99713.60;;;11.80
70533;BMP180;58088;51.186;17.130;2023-11-21T10:09:51;99721.20;;;11.80
70533;BMP180;58088;51.186;17.130;2023-11-21T10:12:17;99726.40;;;11.80
70533;BMP180;58088;51.186;17.130;2023-11-21T10:14:48;99730.20;;;11.80
70533;BMP180;58088;51.186;17.130;2023-11-21T10:17:17;99732.80;;;11.80
70533;BMP180;58088;51.186;17.130;2023-11-21T10:19:47;99738.00;;;11.70
70533;BMP180;58088;51.186;17.130;2023-11-21T10:22:15;99736.20;;;11.70
70533;BMP180;58088;51.186;17.130;2023-11-21T10:24:41;99736.40;;;11.64
70533;BMP180;58088;51.186;17.130;2023-11-21T10:27:09;99732.20;;;11.52
70533;BMP180;58088;51.186;17.130;2023-11-21T10:29:35;99735.00;;;11.50
70533;BMP180;58088;51.186;17.130;2023-11-21T10:32:03;99740.60;;;11.40
70533;BMP180;58088;51.186;17.130;2023-11-21T10:34:29;99743.20;;;11.38
70533;BMP180;58088;51.186;17.130;2023-11-21T10:36:55;99744.80;;;11.30
70533;BMP180;58088;51.186;17.130;2023-11-21T10:39:25;99747.20;;;11.20
70533;BMP180;58088;51.186;17.130;2023-11-21T10:41:56;99755.00;;;11.20
70533;BMP180;58088;51.186;17.130;2023-11-21T10:44:22;99756.60;;;11.14
70533;BMP180;58088;51.186;17.130;2023-11-21T10:46:52;99751.60;;;11.10
70533;BMP180;58088;51.186;17.130;2023-11-21T10:49:24;99757.40;;;11.00
70533;BMP180;58088;51.186;17.130;2023-11-21T10:51:55;99757.60;;;10.92
70533;BMP180;58088;51.186;17.130;2023-11-21T10:54:26;99763.40;;;10.80
70533;BMP180;58088;51.186;17.130;2023-11-21T10:57:00;99766.20;;;10.70
70533;BMP180;58088;51.186;17.130;2023-11-21T10:59:30;99768.00;;;10.60
70533;BMP180;58088;51.186;17.130;2023-11-21T11:01:58;99770.20;;;10.54
70533;BMP180;58088;51.186;17.130;2023-11-21T11:04:27;99770.00;;;10.50
70533;BMP180;58088;51.186;17.130;2023-11-21T11:06:57;99775.20;;;10.50
70533;BMP180;58088;51.186;17.130;2023-11-21T11:09:24;99769.80;;;10.40
70533;BMP180;58088;51.186;17.130;2023-11-21T11:11:51;99778.80;;;10.40
70533;BMP180;58088;51.186;17.130;2023-11-21T11:14:19;99782.20;;;10.30
70533;BMP180;58088;51.186;17.130;2023-11-21T11:16:45;99784.60;;;10.20
70533;BMP180;58088;51.186;17.130;2023-11-21T11:19:12;99778.80;;;10.20
70533;BMP180;58088;51.186;17.130;2023-11-21T11:25:11;99787.40;;;10.00
70533;BMP180;58088;51.186;17.130;2023-11-21T11:28:07;99784.00;;;9.90
70533;BMP180;58088;51.186;17.130;2023-11-21T11:36:40;99788.60;;;9.70
70533;BMP180;58088;51.186;17.130;2023-11-21T11:39:38;99791.60;;;9.62
70533;BMP180;58088;51.186;17.130;2023-11-21T11:42:08;99795.40;;;9.60
70533;BMP180;58088;51.186;17.130;2023-11-21T11:47:32;99804.20;;;9.50
70533;BMP180;58088;51.186;17.130;2023-11-21T11:50:11;99801.80;;;9.50
70533;BMP180;58088;51.186;17.130;2023-11-21T11:52:48;99809.00;;;9.40
70533;BMP180;58088;51.186;17.130;2023-11-21T11:55:19;99807.40;;;9.34
70533;BMP180;58088;51.186;17.130;2023-11-21T11:57:52;99802.20;;;9.22
70533;BMP180;58088;51.186;17.130;2023-11-21T12:02:58;99814.40;;;9.20
70533;BMP180;58088;51.186;17.130;2023-11-21T12:05:26;99823.80;;;9.10
70533;BMP180;58088;51.186;17.130;2023-11-21T12:08:03;99826.80;;;9.08
70533;BMP180;58088;51.186;17.130;2023-11-21T12:10:35;99832.60;;;8.98
70533;BMP180;58088;51.186;17.130;2023-11-21T12:13:05;99829.40;;;8.90
70533;BMP180;58088;51.186;17.130;2023-11-21T12:15:34;99834.60;;;8.90
70533;BMP180;58088;51.186;17.130;2023-11-21T12:18:01;99830.00;;;8.80
70533;BMP180;58088;51.186;17.130;2023-11-21T12:20:28;99831.80;;;8.80
70533;BMP180;58088;51.186;17.130;2023-11-21T12:22:59;99829.40;;;8.70
70533;BMP180;58088;51.186;17.130;2023-11-21T12:25:28;99833.80;;;8.60
70533;BMP180;58088;51.186;17.130;2023-11-21T12:27:56;99836.40;;;8.40
70533;BMP180;58088;51.186;17.130;2023-11-21T12:30:27;99834.40;;;8.34
70533;BMP180;58088;51.186;17.130;2023-11-21T12:33:00;99839.00;;;8.30
70533;BMP180;58088;51.186;17.130;2023-11-21T12:35:34;99848.80;;;8.22
70533;BMP180;58088;51.186;17.130;2023-11-21T12:38:03;99844.00;;;8.20
70533;BMP180;58088;51.186;17.130;2023-11-21T12:40:29;99853.60;;;8.10
70533;BMP180;58088;51.186;17.130;2023-11-21T12:42:58;99855.20;;;8.10
70533;BMP180;58088;51.186;17.130;2023-11-21T12:45:27;99860.80;;;8.10
70533;BMP180;58088;51.186;17.130;2023-11-21T12:47:56;99862.20;;;8.00
70533;BMP180;58088;51.186;17.130;2023-11-21T12:50:27;99869.40;;;8.00
70533;BMP180;58088;51.186;17.130;2023-11-21T12:53:09;99873.80;;;7.90
70533;BMP180;58088;51.186;17.130;2023-11-21T12:55:38;99881.40;;;7.90
70533;BMP180;58088;51.186;17.130;2023-11-21T12:58:09;99882.00;;;7.80
70533;BMP180;58088;51.186;17.130;2023-11-21T13:00:38;99886.00;;;7.80
70533;BMP180;58088;51.186;17.130;2023-11-21T13:03:08;99893.20;;;7.70
70533;BMP180;58088;51.186;17.130;2023-11-21T13:05:37;99892.20;;;7.70
70533;BMP180;58088;51.186;17.130;2023-11-21T13:08:06;99899.00;;;7.60
70533;BMP180;58088;51.186;17.130;2023-11-21T13:10:40;99903.40;;;7.60
70533;BMP180;58088;51.186;17.130;2023-11-21T13:13:10;99905.40;;;7.50
70533;BMP180;58088;51.186;17.130;2023-11-21T13:18:28;99912.00;;;7.40
70533;BMP180;58088;51.186;17.130;2023-11-21T13:20:55;99919.40;;;7.40
70533;BMP180;58088;51.186;17.130;2023-11-21T13:23:22;99921.80;;;7.40
70533;BMP180;58088;51.186;17.130;2023-11-21T13:25:50;99932.40;;;7.40
70533;BMP180;58088;51.186;17.130;2023-11-21T13:28:16;99930.60;;;7.30
70533;BMP180;58088;51.186;17.130;2023-11-21T13:30:44;99936.60;;;7.30
70533;BMP180;58088;51.186;17.130;2023-11-21T13:33:10;99938.00;;;7.20
70533;BMP180;58088;51.186;17.130;2023-11-21T13:35:44;99942.40;;;7.24
70533;BMP180;58088;51.186;17.130;2023-11-21T13:38:18;99939.80;;;7.20
70533;BMP180;58088;51.186;17.130;2023-11-21T13:40:53;99941.80;;;7.10
70533;BMP180;58088;51.186;17.130;2023-11-21T13:43:25;99949.00;;;7.20
70533;BMP180;58088;51.186;17.130;2023-11-21T13:45:53;99952.80;;;7.10
70533;BMP180;58088;51.186;17.130;2023-11-21T13:48:44;99956.20;;;7.10
70533;BMP180;58088;51.186;17.130;2023-11-21T13:51:16;99960.80;;;7.10
70533;BMP180;58088;51.186;17.130;2023-11-21T13:53:47;99967.00;;;7.00
70533;BMP180;58088;51.186;17.130;2023-11-21T13:56:16;99967.20;;;7.00
70533;BMP180;58088;51.186;17.130;2023-11-21T13:58:50;99970.80;;;6.86
70533;BMP180;58088;51.186;17.130;2023-11-21T14:01:26;99976.20;;;6.80
70533;BMP180;58088;51.186;17.130;2023-11-21T14:04:00;99979.80;;;6.80
70533;BMP180;58088;51.186;17.130;2023-11-21T14:06:49;99977.40;;;6.70
70533;BMP180;58088;51.186;17.130;2023-11-21T14:09:19;99983.00;;;6.70
70533;BMP180;58088;51.186;17.130;2023-11-21T14:11:53;99990.00;;;6.70
70533;BMP180;58088;51.186;17.130;2023-11-21T14:14:21;99994.60;;;6.60
70533;BMP180;58088;51.186;17.130;2023-11-21T14:16:47;100005.20;;;6.60
70533;BMP180;58088;51.186;17.130;2023-11-21T14:19:14;100001.80;;;6.60
70533;BMP180;58088;51.186;17.130;2023-11-21T14:21:44;100006.00;;;6.50
70533;BMP180;58088;51.186;17.130;2023-11-21T14:24:11;100015.20;;;6.52